Time;durP1;ratioP1;P1;durP2;ratioP2;P2;SDS_P1;SDS_P2;PMS_P1;PMS_P2;Temp;Humidity;BMP_temperature;BMP_pressure;BME280_temperature;BME280_humidity;BME280_pressure;Samples;Min_cycle;Max_cycle;Signal;HPM_P1;HPM_P2
2023/07/25 00:00:51;;;;;;;25.53;23.87;;;;;;;;;;5102999;28;20435;-86
2023/07/25 00:03:20;;;;;;;24.17;22.23;;;;;;;;;;5102963;28;20453;-86
2023/07/25 00:05:47;;;;;;;25.17;23.40;;;;;;;;;;5102772;28;20445;-85
2023/07/25 00:08:14;;;;;;;26.33;24.63;;;;;;;;;;5102704;28;20506;-85
2023/07/25 00:10:41;;;;;;;25.47;23.83;;;;;;;;;;5102595;28;20481;-86
2023/07/25 00:13:08;;;;;;;26.63;24.73;;;;;;;;;;5103410;28;20436;-86
2023/07/25 00:15:35;;;;;;;28.80;26.80;;;;;;;;;;5103167;28;20427;-86
2023/07/25 00:18:02;;;;;;;27.17;25.47;;;;;;;;;;5102880;28;20449;-85
2023/07/25 00:20:31;;;;;;;26.33;24.80;;;;;;;;;;5102217;28;20474;-86
2023/07/25 00:22:59;;;;;;;26.43;24.73;;;;;;;;;;5102257;28;20469;-86
2023/07/25 00:25:26;;;;;;;27.10;25.30;;;;;;;;;;5102751;28;20479;-86
2023/07/25 00:27:53;;;;;;;26.07;24.53;;;;;;;;;;5102919;28;20410;-86
2023/07/25 00:30:20;;;;;;;28.23;26.53;;;;;;;;;;5102062;28;20488;-85
2023/07/25 00:32:47;;;;;;;28.30;26.30;;;;;;;;;;5103222;28;20489;-85
2023/07/25 00:35:14;;;;;;;29.53;27.40;;;;;;;;;;5102244;28;20489;-85
2023/07/25 00:37:43;;;;;;;27.40;25.80;;;;;;;;;;5102573;28;20460;-85
2023/07/25 00:40:10;;;;;;;29.33;26.90;;;;;;;;;;5101110;28;20420;-85
2023/07/25 00:42:37;;;;;;;27.37;25.47;;;;;;;;;;5102850;28;20452;-86
2023/07/25 00:45:04;;;;;;;28.93;27.23;;;;;;;;;;5102973;28;20415;-85
2023/07/25 00:47:32;;;;;;;27.70;25.80;;;;;;;;;;5102941;28;20485;-85
2023/07/25 00:49:59;;;;;;;29.30;27.27;;;;;;;;;;5102093;28;20477;-85
2023/07/25 00:52:26;;;;;;;29.40;27.50;;;;;;;;;;5102984;28;20890;-85
2023/07/25 00:54:55;;;;;;;28.60;26.73;;;;;;;;;;5101581;28;20416;-85
2023/07/25 00:57:22;;;;;;;29.70;27.60;;;;;;;;;;5102658;28;20419;-85
2023/07/25 00:59:49;;;;;;;29.30;27.30;;;;;;;;;;5101883;28;20419;-85
2023/07/25 01:02:16;;;;;;;29.87;27.43;;;;;;;;;;5101594;28;20453;-85
2023/07/25 01:04:44;;;;;;;29.40;27.57;;;;;;;;;;5102139;28;20424;-85
2023/07/25 01:07:12;;;;;;;30.70;28.87;;;;;;;;;;5102296;28;20494;-85
2023/07/25 01:09:40;;;;;;;32.37;30.27;;;;;;;;;;5101686;28;20444;-86
2023/07/25 01:12:11;;;;;;;31.50;29.30;;;;;;;;;;5102229;28;20427;-85
2023/07/25 01:14:38;;;;;;;28.50;27.00;;;;;;;;;;5102703;28;20404;-85
2023/07/25 01:17:07;;;;;;;31.07;29.30;;;;;;;;;;5101460;28;20412;-85
2023/07/25 01:19:35;;;;;;;31.47;29.60;;;;;;;;;;5101642;28;20412;-85
2023/07/25 01:22:03;;;;;;;30.73;28.93;;;;;;;;;;5102231;28;20447;-84
2023/07/25 01:24:31;;;;;;;31.00;29.00;;;;;;;;;;5102932;28;20423;-85
2023/07/25 01:26:58;;;;;;;29.27;27.40;;;;;;;;;;5101782;28;20419;-85
2023/07/25 01:29:25;;;;;;;29.30;27.47;;;;;;;;;;5101090;28;20456;-85
2023/07/25 01:31:52;;;;;;;29.33;27.20;;;;;;;;;;5102058;28;20553;-85
2023/07/25 01:34:19;;;;;;;28.57;26.73;;;;;;;;;;5101958;28;21014;-84
2023/07/25 01:36:46;;;;;;;29.43;27.40;;;;;;;;;;5101429;28;20436;-85
2023/07/25 01:39:14;;;;;;;29.47;27.67;;;;;;;;;;5101583;28;20479;-85
2023/07/25 01:41:44;;;;;;;30.43;28.30;;;;;;;;;;5102508;28;20464;-85
2023/07/25 01:44:11;;;;;;;28.97;27.00;;;;;;;;;;5101619;28;20415;-85
2023/07/25 01:46:40;;;;;;;29.47;27.17;;;;;;;;;;5101723;28;20498;-83
2023/07/25 01:49:07;;;;;;;28.90;27.37;;;;;;;;;;5102098;28;20436;-86
2023/07/25 01:51:34;;;;;;;29.80;27.83;;;;;;;;;;5101567;28;20435;-85
2023/07/25 01:54:01;;;;;;;28.77;26.97;;;;;;;;;;5102467;28;20484;-85
2023/07/25 01:56:28;;;;;;;29.10;27.40;;;;;;;;;;5102081;28;20423;-85
2023/07/25 01:58:57;;;;;;;30.70;29.00;;;;;;;;;;5100928;28;20415;-85
2023/07/25 02:01:24;;;;;;;31.63;29.67;;;;;;;;;;5100968;28;20436;-85
2023/07/25 02:03:51;;;;;;;30.10;28.20;;;;;;;;;;5100831;28;20440;-85
2023/07/25 02:06:18;;;;;;;30.23;28.20;;;;;;;;;;5102002;28;20437;-86
2023/07/25 02:08:45;;;;;;;31.00;29.40;;;;;;;;;;5101427;28;20418;-86
2023/07/25 02:11:12;;;;;;;29.77;28.07;;;;;;;;;;5101843;28;20471;-85
2023/07/25 02:13:40;;;;;;;28.33;26.63;;;;;;;;;;5101909;28;20449;-85
2023/07/25 02:16:08;;;;;;;29.30;27.40;;;;;;;;;;5102140;28;20476;-84
2023/07/25 02:18:35;;;;;;;29.87;27.80;;;;;;;;;;5101067;28;20476;-85
2023/07/25 02:21:02;;;;;;;30.93;28.67;;;;;;;;;;5100291;28;20438;-85
2023/07/25 02:23:29;;;;;;;31.80;28.20;;;;;;;;;;5101097;28;20422;-85
2023/07/25 02:25:56;;;;;;;30.40;28.60;;;;;;;;;;5101613;28;20449;-85
2023/07/25 02:28:23;;;;;;;29.50;27.47;;;;;;;;;;5101350;28;20456;-85
2023/07/25 02:30:50;;;;;;;31.10;28.90;;;;;;;;;;5105114;28;20467;-84
2023/07/25 02:33:19;;;;;;;32.83;30.63;;;;;;;;;;5105909;28;20431;-85
2023/07/25 02:35:46;;;;;;;34.23;31.83;;;;;;;;;;5105528;28;20465;-84
2023/07/25 02:38:13;;;;;;;36.70;33.70;;;;;;;;;;5104974;28;20411;-84
2023/07/25 02:40:40;;;;;;;32.80;30.60;;;;;;;;;;5105261;28;20442;-85
2023/07/25 02:43:08;;;;;;;33.47;31.47;;;;;;;;;;5105568;28;20508;-85
2023/07/25 02:45:35;;;;;;;33.30;30.93;;;;;;;;;;5105867;28;20453;-85
2023/07/25 02:48:02;;;;;;;34.30;31.93;;;;;;;;;;5105358;28;20428;-84
2023/07/25 02:50:31;;;;;;;34.60;32.37;;;;;;;;;;5104338;28;20507;-84
2023/07/25 02:52:58;;;;;;;35.50;33.23;;;;;;;;;;5104993;28;20434;-85
2023/07/25 02:55:26;;;;;;;35.00;32.60;;;;;;;;;;5105033;28;20433;-85
2023/07/25 02:57:53;;;;;;;34.10;31.90;;;;;;;;;;5105493;28;20911;-84
2023/07/25 03:00:20;;;;;;;36.50;34.20;;;;;;;;;;5104630;28;20475;-85
2023/07/25 03:02:47;;;;;;;34.60;32.10;;;;;;;;;;5104374;28;20496;-84
2023/07/25 03:05:15;;;;;;;37.73;35.20;;;;;;;;;;5104858;28;20459;-85
2023/07/25 03:07:43;;;;;;;37.33;34.73;;;;;;;;;;5104522;28;20433;-85
2023/07/25 03:10:11;;;;;;;36.87;34.73;;;;;;;;;;5103818;28;20454;-85
2023/07/25 03:12:38;;;;;;;37.07;34.83;;;;;;;;;;5104980;28;20492;-85
2023/07/25 03:15:05;;;;;;;37.10;34.27;;;;;;;;;;5104628;28;20459;-85
2023/07/25 03:17:32;;;;;;;37.43;35.03;;;;;;;;;;5104842;28;20457;-85
2023/07/25 03:19:59;;;;;;;36.67;34.57;;;;;;;;;;5103437;28;20969;-85
2023/07/25 03:22:25;;;;;;;36.37;33.77;;;;;;;;;;5103621;28;20443;-85
2023/07/25 03:24:54;;;;;;;34.83;32.73;;;;;;;;;;5104216;28;20432;-84
2023/07/25 03:27:21;;;;;;;34.73;32.17;;;;;;;;;;5104862;28;20452;-84
2023/07/25 03:29:48;;;;;;;35.07;32.30;;;;;;;;;;5103395;28;20457;-85
2023/07/25 03:32:15;;;;;;;32.93;31.00;;;;;;;;;;5104433;28;20473;-84
2023/07/25 03:34:42;;;;;;;33.27;31.20;;;;;;;;;;5103653;28;20475;-85
2023/07/25 03:37:09;;;;;;;33.23;31.10;;;;;;;;;;5103886;28;20457;-85
2023/07/25 03:39:36;;;;;;;32.90;30.80;;;;;;;;;;5103258;28;20476;-84
2023/07/25 03:42:05;;;;;;;35.27;32.83;;;;;;;;;;5103269;28;20815;-85
2023/07/25 03:44:32;;;;;;;34.20;31.87;;;;;;;;;;5104491;28;20935;-84
2023/07/25 03:46:59;;;;;;;31.63;29.40;;;;;;;;;;5103699;28;20427;-84
2023/07/25 03:49:26;;;;;;;33.30;30.90;;;;;;;;;;5102894;28;20940;-85
2023/07/25 03:51:53;;;;;;;31.93;29.83;;;;;;;;;;5103626;28;20856;-84
2023/07/25 03:54:23;;;;;;;33.93;31.53;;;;;;;;;;5103946;28;20418;-84
2023/07/25 03:56:50;;;;;;;31.10;29.13;;;;;;;;;;5104418;28;20403;-84
2023/07/25 03:59:19;;;;;;;33.70;31.07;;;;;;;;;;5103423;28;20431;-85
2023/07/25 04:01:46;;;;;;;32.53;30.20;;;;;;;;;;5103693;28;20440;-84
2023/07/25 04:04:13;;;;;;;32.20;29.87;;;;;;;;;;5104230;28;20439;-84
2023/07/25 04:06:40;;;;;;;33.37;30.90;;;;;;;;;;5103795;28;20465;-85
2023/07/25 04:09:07;;;;;;;32.33;29.97;;;;;;;;;;5101309;28;20426;-84
2023/07/25 04:11:34;;;;;;;30.57;28.57;;;;;;;;;;5100889;28;20451;-84
2023/07/25 04:14:02;;;;;;;30.57;27.80;;;;;;;;;;5101485;28;20433;-85
2023/07/25 04:16:30;;;;;;;28.73;27.03;;;;;;;;;;5104383;28;20540;-85
2023/07/25 04:18:58;;;;;;;29.83;27.60;;;;;;;;;;5103497;28;20427;-85
2023/07/25 04:21:25;;;;;;;30.37;28.10;;;;;;;;;;5102657;28;20799;-83
2023/07/25 04:23:52;;;;;;;31.20;28.70;;;;;;;;;;5101923;28;20481;-84
2023/07/25 04:26:19;;;;;;;29.73;27.53;;;;;;;;;;5101572;28;20449;-84
2023/07/25 04:28:48;;;;;;;29.90;27.73;;;;;;;;;;5099131;28;20412;-84
2023/07/25 04:31:15;;;;;;;29.60;26.80;;;;;;;;;;5099492;28;20500;-84
2023/07/25 04:33:44;;;;;;;27.17;25.50;;;;;;;;;;5099553;28;20484;-83
2023/07/25 04:36:11;;;;;;;28.57;26.27;;;;;;;;;;5100045;28;20423;-84
2023/07/25 04:38:38;;;;;;;29.93;27.07;;;;;;;;;;5098986;28;20431;-85
2023/07/25 04:41:05;;;;;;;31.03;28.47;;;;;;;;;;5099277;28;20459;-83
2023/07/25 04:43:32;;;;;;;29.00;26.80;;;;;;;;;;5099824;28;20453;-84
2023/07/25 04:45:59;;;;;;;29.13;26.97;;;;;;;;;;5099847;28;20427;-84
2023/07/25 04:48:26;;;;;;;29.23;27.03;;;;;;;;;;5098655;28;20448;-84
2023/07/25 04:50:54;;;;;;;30.10;27.60;;;;;;;;;;5099222;28;20500;-84
2023/07/25 04:53:21;;;;;;;33.73;30.90;;;;;;;;;;5098311;28;20426;-83
2023/07/25 04:55:48;;;;;;;28.43;26.37;;;;;;;;;;5099332;28;20429;-83
2023/07/25 04:58:15;;;;;;;29.83;27.33;;;;;;;;;;5099072;28;20831;-84
2023/07/25 05:00:43;;;;;;;29.23;26.67;;;;;;;;;;5098447;28;20477;-84
2023/07/25 05:03:10;;;;;;;28.17;25.80;;;;;;;;;;5099525;28;20391;-83
2023/07/25 05:05:37;;;;;;;27.67;25.83;;;;;;;;;;5098778;28;20453;-84
2023/07/25 05:08:05;;;;;;;28.43;26.27;;;;;;;;;;5099114;28;20431;-84
2023/07/25 05:10:34;;;;;;;26.07;24.47;;;;;;;;;;5097990;28;20459;-83
2023/07/25 05:13:03;;;;;;;26.83;24.93;;;;;;;;;;5098832;28;20454;-84
2023/07/25 05:15:30;;;;;;;25.90;24.10;;;;;;;;;;5098677;28;20441;-83
2023/07/25 05:17:58;;;;;;;27.00;24.23;;;;;;;;;;5098513;28;20882;-82
2023/07/25 05:20:25;;;;;;;26.40;24.20;;;;;;;;;;5097724;28;20974;-83
2023/07/25 05:22:52;;;;;;;26.87;25.17;;;;;;;;;;5098522;28;20779;-83
2023/07/25 05:25:20;;;;;;;26.30;24.60;;;;;;;;;;5098554;28;20815;-84
2023/07/25 05:27:47;;;;;;;25.67;23.90;;;;;;;;;;5098349;28;20804;-82
2023/07/25 05:30:14;;;;;;;25.23;23.43;;;;;;;;;;5097625;28;20453;-85
2023/07/25 05:32:41;;;;;;;28.73;26.20;;;;;;;;;;5098567;28;20944;-83
2023/07/25 05:35:08;;;;;;;26.23;24.50;;;;;;;;;;5098172;28;20423;-83
2023/07/25 05:37:36;;;;;;;25.67;24.07;;;;;;;;;;5098604;28;21012;-84
2023/07/25 05:40:03;;;;;;;26.50;24.67;;;;;;;;;;5097686;28;20440;-84
2023/07/25 05:42:32;;;;;;;27.70;25.70;;;;;;;;;;5098177;28;21026;-84
2023/07/25 05:44:59;;;;;;;26.67;23.63;;;;;;;;;;5097798;28;20439;-83
2023/07/25 05:47:26;;;;;;;25.73;23.50;;;;;;;;;;5097777;28;20565;-83
2023/07/25 05:49:53;;;;;;;24.77;23.03;;;;;;;;;;5096933;28;20431;-83
2023/07/25 05:52:20;;;;;;;24.90;23.10;;;;;;;;;;5097083;28;20487;-83
2023/07/25 05:54:48;;;;;;;26.00;24.20;;;;;;;;;;5098013;28;20419;-84
2023/07/25 05:57:16;;;;;;;27.37;24.87;;;;;;;;;;5098466;28;20941;-84
2023/07/25 05:59:44;;;;;;;26.03;24.07;;;;;;;;;;5097481;28;20448;-83
2023/07/25 06:02:11;;;;;;;24.60;23.10;;;;;;;;;;5096903;28;20467;-82
2023/07/25 06:04:39;;;;;;;25.47;22.93;;;;;;;;;;5099895;28;20419;-84
2023/07/25 06:07:07;;;;;;;25.20;23.47;;;;;;;;;;5102125;28;20476;-83
2023/07/25 06:09:34;;;;;;;25.00;22.93;;;;;;;;;;5101225;28;20447;-83
2023/07/25 06:12:01;;;;;;;23.87;22.10;;;;;;;;;;5100854;28;20505;-83
2023/07/25 06:14:29;;;;;;;24.53;22.63;;;;;;;;;;5101660;28;20481;-83
2023/07/25 06:16:57;;;;;;;23.10;21.70;;;;;;;;;;5101575;28;20488;-83
2023/07/25 06:19:24;;;;;;;23.63;21.63;;;;;;;;;;5101165;28;20444;-83
2023/07/25 06:21:51;;;;;;;25.13;23.23;;;;;;;;;;5101677;28;20464;-84
2023/07/25 06:24:18;;;;;;;23.43;21.80;;;;;;;;;;5101521;28;20460;-83
2023/07/25 06:26:45;;;;;;;25.07;22.97;;;;;;;;;;5100917;28;20451;-83
2023/07/25 06:29:13;;;;;;;23.83;22.03;;;;;;;;;;5100027;28;20817;-84
2023/07/25 06:31:40;;;;;;;23.37;21.40;;;;;;;;;;5100666;28;20487;-82
2023/07/25 06:34:09;;;;;;;24.13;22.27;;;;;;;;;;5100287;28;20492;-82
2023/07/25 06:36:36;;;;;;;23.13;21.37;;;;;;;;;;5100859;28;20467;-84
2023/07/25 06:39:03;;;;;;;24.43;21.83;;;;;;;;;;5098903;28;20419;-83
2023/07/25 06:41:30;;;;;;;23.50;21.90;;;;;;;;;;5100494;28;20507;-83
2023/07/25 06:43:57;;;;;;;23.43;21.93;;;;;;;;;;5100280;28;20501;-83
2023/07/25 06:46:24;;;;;;;23.90;22.30;;;;;;;;;;5100541;28;20477;-89
2023/07/25 06:48:52;;;;;;;23.10;21.10;;;;;;;;;;5102160;28;20494;-93
2023/07/25 06:51:21;;;;;;;22.63;21.03;;;;;;;;;;5103504;28;20484;-91
2023/07/25 06:53:48;;;;;;;23.23;21.13;;;;;;;;;;5107965;28;20452;-94
2023/07/25 06:56:15;;;;;;;23.23;20.90;;;;;;;;;;5102049;28;20417;-92
2023/07/25 06:58:42;;;;;;;22.00;20.47;;;;;;;;;;5101761;28;20438;-94
2023/07/25 07:01:09;;;;;;;23.30;21.00;;;;;;;;;;5102519;28;20463;-92
2023/07/25 07:03:36;;;;;;;22.40;20.90;;;;;;;;;;5100528;28;20912;-93
2023/07/25 07:06:04;;;;;;;23.00;20.90;;;;;;;;;;5102012;28;20411;-92
2023/07/25 07:08:32;;;;;;;22.13;20.73;;;;;;;;;;5103742;28;20460;-93
2023/07/25 07:10:59;;;;;;;22.07;20.67;;;;;;;;;;5105396;28;20534;-93
2023/07/25 07:13:27;;;;;;;22.90;21.00;;;;;;;;;;5106688;28;20424;-93
2023/07/25 07:15:54;;;;;;;22.30;20.73;;;;;;;;;;5104592;28;20499;-92
2023/07/25 07:18:21;;;;;;;23.57;21.70;;;;;;;;;;5107807;28;20419;-93
2023/07/25 07:20:49;;;;;;;23.97;22.20;;;;;;;;;;5109052;28;20455;-94
2023/07/25 07:23:16;;;;;;;21.67;20.20;;;;;;;;;;5105822;28;20456;-92
2023/07/25 07:25:45;;;;;;;21.97;20.37;;;;;;;;;;5100748;28;20448;-93
2023/07/25 07:28:12;;;;;;;20.77;19.50;;;;;;;;;;5100963;28;20456;-93
2023/07/25 07:30:39;;;;;;;20.97;19.77;;;;;;;;;;5098223;28;20440;-92
2023/07/25 07:33:06;;;;;;;21.83;19.87;;;;;;;;;;5099510;28;20488;-93
2023/07/25 07:35:33;;;;;;;21.13;19.83;;;;;;;;;;5099999;28;20455;-91
2023/07/25 07:38:00;;;;;;;21.20;19.90;;;;;;;;;;5097614;28;20454;-90
2023/07/25 07:40:28;;;;;;;23.07;20.90;;;;;;;;;;5099288;28;20435;-87
2023/07/25 07:42:56;;;;;;;21.23;19.70;;;;;;;;;;5099407;28;20492;-87
2023/07/25 07:45:25;;;;;;;22.03;20.63;;;;;;;;;;5101009;28;20502;-86
2023/07/25 07:47:52;;;;;;;23.63;21.60;;;;;;;;;;5100989;28;20487;-84
2023/07/25 07:50:19;;;;;;;22.00;20.70;;;;;;;;;;5102817;28;20481;-84
2023/07/25 07:52:46;;;;;;;22.50;20.80;;;;;;;;;;5102094;28;20488;-84
2023/07/25 07:55:14;;;;;;;21.60;20.20;;;;;;;;;;5102624;28;20502;-85
2023/07/25 07:57:41;;;;;;;21.80;20.20;;;;;;;;;;5102619;28;20453;-85
2023/07/25 08:00:11;;;;;;;22.00;20.53;;;;;;;;;;5104456;28;20506;-84
2023/07/25 08:02:38;;;;;;;21.20;19.93;;;;;;;;;;5103865;28;20511;-84
2023/07/25 08:05:05;;;;;;;21.80;20.27;;;;;;;;;;5104267;28;20453;-81
2023/07/25 08:07:32;;;;;;;21.23;20.03;;;;;;;;;;5103961;28;20464;-83
2023/07/25 08:09:59;;;;;;;22.40;21.00;;;;;;;;;;5104047;28;20777;-82
2023/07/25 08:12:26;;;;;;;22.93;21.57;;;;;;;;;;5103393;28;20459;-83
2023/07/25 08:14:53;;;;;;;23.27;21.70;;;;;;;;;;5103716;28;20449;-83
2023/07/25 08:17:22;;;;;;;22.97;21.20;;;;;;;;;;5105334;28;20861;-82
2023/07/25 08:19:50;;;;;;;23.47;21.97;;;;;;;;;;5104652;28;20416;-83
2023/07/25 08:22:17;;;;;;;22.53;21.13;;;;;;;;;;5105253;28;20534;-84
2023/07/25 08:24:44;;;;;;;22.00;20.50;;;;;;;;;;5104333;28;20445;-83
2023/07/25 08:27:11;;;;;;;21.73;20.30;;;;;;;;;;5103719;28;20457;-80
2023/07/25 08:29:42;;;;;;;23.00;21.37;;;;;;;;;;5102975;28;20484;-83
2023/07/25 08:32:09;;;;;;;21.00;19.70;;;;;;;;;;5102229;28;20481;-82
2023/07/25 08:34:38;;;;;;;22.50;21.07;;;;;;;;;;5101297;28;20479;-85
2023/07/25 08:37:06;;;;;;;21.50;20.20;;;;;;;;;;5103837;28;20507;-83
2023/07/25 08:39:33;;;;;;;23.83;22.33;;;;;;;;;;5104186;28;20452;-84
2023/07/25 08:42:00;;;;;;;22.63;21.20;;;;;;;;;;5103245;28;20499;-84
2023/07/25 08:44:28;;;;;;;22.40;20.77;;;;;;;;;;5103982;28;20423;-83
2023/07/25 08:46:56;;;;;;;23.07;21.53;;;;;;;;;;5102924;28;20453;-82
2023/07/25 08:49:24;;;;;;;22.50;21.00;;;;;;;;;;5102136;28;20520;-80
2023/07/25 08:51:53;;;;;;;22.97;21.37;;;;;;;;;;5102849;28;20455;-83
2023/07/25 08:54:23;;;;;;;22.40;20.97;;;;;;;;;;5102714;28;20444;-84
2023/07/25 08:56:50;;;;;;;22.33;20.77;;;;;;;;;;5100043;28;20460;-84
2023/07/25 08:59:18;;;;;;;22.30;20.43;;;;;;;;;;5099194;28;20448;-83
2023/07/25 09:01:46;;;;;;;23.57;21.67;;;;;;;;;;5099447;28;20476;-84
2023/07/25 09:04:14;;;;;;;22.27;20.73;;;;;;;;;;5099989;28;20428;-86
2023/07/25 09:06:41;;;;;;;22.00;20.50;;;;;;;;;;5098529;28;20916;-83
2023/07/25 09:09:09;;;;;;;22.50;20.90;;;;;;;;;;5099398;28;20456;-84
2023/07/25 09:11:36;;;;;;;22.50;21.00;;;;;;;;;;5095074;28;20465;-84
2023/07/25 09:14:03;;;;;;;22.10;20.60;;;;;;;;;;5078663;28;20442;-84
2023/07/25 09:16:31;;;;;;;22.60;21.10;;;;;;;;;;5078063;28;20441;-87
2023/07/25 09:18:58;;;;;;;22.80;21.00;;;;;;;;;;5078600;28;20417;-87
2023/07/25 09:21:25;;;;;;;22.53;21.13;;;;;;;;;;5091423;28;20442;-85
2023/07/25 09:23:52;;;;;;;22.87;21.40;;;;;;;;;;5100861;28;20443;-86
2023/07/25 09:26:22;;;;;;;20.53;19.23;;;;;;;;;;5101878;28;20419;-86
2023/07/25 09:28:50;;;;;;;22.17;20.77;;;;;;;;;;5101986;28;20455;-85
2023/07/25 09:31:17;;;;;;;22.77;21.37;;;;;;;;;;5098960;28;20488;-87
2023/07/25 09:33:47;;;;;;;22.77;20.93;;;;;;;;;;5098940;28;20484;-85
2023/07/25 09:36:14;;;;;;;23.50;22.03;;;;;;;;;;5101133;28;20832;-87
2023/07/25 09:38:48;;;;;;;22.33;20.83;;;;;;;;;;5100542;28;20441;-86
2023/07/25 09:41:15;;;;;;;22.60;21.00;;;;;;;;;;5101572;28;20608;-83
2023/07/25 09:43:44;;;;;;;23.53;21.93;;;;;;;;;;5101859;28;20460;-86
2023/07/25 09:46:11;;;;;;;23.30;21.57;;;;;;;;;;5100919;28;20427;-86
2023/07/25 09:48:41;;;;;;;22.40;20.80;;;;;;;;;;5101587;28;21059;-86
2023/07/25 09:51:08;;;;;;;22.97;21.17;;;;;;;;;;5101917;28;20951;-86
2023/07/25 09:53:35;;;;;;;23.43;21.83;;;;;;;;;;5101238;28;20480;-86
2023/07/25 09:56:03;;;;;;;22.27;20.83;;;;;;;;;;5101780;28;20433;-86
2023/07/25 09:58:30;;;;;;;22.00;20.57;;;;;;;;;;5101144;28;20453;-86
2023/07/25 10:00:59;;;;;;;22.50;21.10;;;;;;;;;;5101113;28;20477;-84
2023/07/25 10:03:29;;;;;;;22.87;21.10;;;;;;;;;;5101647;28;20478;-85
2023/07/25 10:05:56;;;;;;;24.67;23.00;;;;;;;;;;5101830;28;20895;-86
2023/07/25 10:08:24;;;;;;;23.53;22.13;;;;;;;;;;5100256;28;20431;-87
2023/07/25 10:10:51;;;;;;;23.83;22.07;;;;;;;;;;5101524;28;20500;-86
2023/07/25 10:13:18;;;;;;;23.53;21.97;;;;;;;;;;5100708;28;20485;-86
2023/07/25 10:15:45;;;;;;;25.20;23.40;;;;;;;;;;5101582;28;20441;-86
2023/07/25 10:18:22;;;;;;;24.97;23.37;;;;;;;;;;5100552;28;20412;-85
2023/07/25 10:20:49;;;;;;;24.37;22.87;;;;;;;;;;5100488;28;20482;-85
2023/07/25 10:23:16;;;;;;;24.60;22.70;;;;;;;;;;5100820;28;20416;-86
2023/07/25 10:25:44;;;;;;;24.33;22.80;;;;;;;;;;5101331;28;20453;-86
2023/07/25 10:28:12;;;;;;;24.30;22.90;;;;;;;;;;5100319;28;20484;-86
2023/07/25 10:30:43;;;;;;;23.47;21.97;;;;;;;;;;5099994;28;20459;-86
2023/07/25 10:33:12;;;;;;;23.83;22.43;;;;;;;;;;5100193;28;20488;-87
2023/07/25 10:35:41;;;;;;;23.27;21.90;;;;;;;;;;5099516;28;20428;-87
2023/07/25 10:38:09;;;;;;;23.83;22.33;;;;;;;;;;5101334;28;20436;-87
2023/07/25 10:40:51;;;;;;;23.20;21.60;;;;;;;;;;5099274;28;20441;-86
2023/07/25 10:43:19;;;;;;;24.03;22.60;;;;;;;;;;5099744;28;20425;-86
2023/07/25 10:45:50;;;;;;;23.10;21.80;;;;;;;;;;5097910;28;20465;-88
2023/07/25 10:48:30;;;;;;;23.40;22.00;;;;;;;;;;5099642;28;20944;-86
2023/07/25 10:50:59;;;;;;;22.00;20.60;;;;;;;;;;5101151;28;20430;-86
2023/07/25 10:53:27;;;;;;;22.40;20.90;;;;;;;;;;5103648;28;20451;-86
2023/07/25 10:56:10;;;;;;;22.83;21.43;;;;;;;;;;5104401;28;20427;-85
2023/07/25 10:58:38;;;;;;;22.67;21.07;;;;;;;;;;5098739;28;20547;-85
2023/07/25 11:01:05;;;;;;;22.93;21.27;;;;;;;;;;5080950;28;20493;-87
2023/07/25 11:03:33;;;;;;;23.90;22.07;;;;;;;;;;5078684;28;20442;-84
2023/07/25 11:06:19;;;;;;;21.70;20.40;;;;;;;;;;5080484;28;20460;-87
2023/07/25 11:08:47;;;;;;;23.00;21.40;;;;;;;;;;5077879;28;20794;-88
2023/07/25 11:11:14;;;;;;;22.83;21.43;;;;;;;;;;5078456;28;20465;-88
2023/07/25 11:13:43;;;;;;;22.77;21.47;;;;;;;;;;5078566;28;20497;-84
2023/07/25 11:16:11;;;;;;;24.77;22.80;;;;;;;;;;5084160;28;20453;-84
2023/07/25 11:18:38;;;;;;;22.67;21.17;;;;;;;;;;5082596;28;20428;-84
2023/07/25 11:21:06;;;;;;;23.10;21.40;;;;;;;;;;5082976;28;20515;-84
2023/07/25 11:23:34;;;;;;;22.07;20.67;;;;;;;;;;5082808;28;20418;-85
2023/07/25 11:26:03;;;;;;;22.63;21.20;;;;;;;;;;5081369;28;20450;-83
2023/07/25 11:28:31;;;;;;;22.57;21.07;;;;;;;;;;5083138;28;20818;-82
2023/07/25 11:30:58;;;;;;;22.83;21.20;;;;;;;;;;5082594;28;20496;-83
2023/07/25 11:33:25;;;;;;;22.00;20.50;;;;;;;;;;5083017;28;20489;-84
2023/07/25 11:35:53;;;;;;;21.63;20.13;;;;;;;;;;5082639;28;20981;-84
2023/07/25 11:38:20;;;;;;;21.87;20.40;;;;;;;;;;5082059;28;20442;-83
2023/07/25 11:40:50;;;;;;;21.90;20.60;;;;;;;;;;5080611;28;20485;-83
2023/07/25 11:43:19;;;;;;;22.30;20.87;;;;;;;;;;5080770;28;20437;-82
2023/07/25 11:45:46;;;;;;;22.73;21.23;;;;;;;;;;5080712;28;20461;-86
2023/07/25 11:48:15;;;;;;;22.83;21.23;;;;;;;;;;5080842;28;20442;-84
2023/07/25 11:50:43;;;;;;;22.83;21.33;;;;;;;;;;5081093;28;20915;-84
2023/07/25 11:53:11;;;;;;;22.47;21.10;;;;;;;;;;5081614;28;20465;-83
2023/07/25 11:55:38;;;;;;;22.97;21.47;;;;;;;;;;5082074;28;20778;-83
2023/07/25 11:58:05;;;;;;;22.67;21.07;;;;;;;;;;5081152;28;20457;-83
2023/07/25 12:00:41;;;;;;;23.00;21.30;;;;;;;;;;5080863;28;20933;-84
2023/07/25 12:03:17;;;;;;;23.00;21.50;;;;;;;;;;5079921;28;20427;-84
2023/07/25 12:05:51;;;;;;;22.70;21.30;;;;;;;;;;5079906;28;20905;-83
2023/07/25 12:08:30;;;;;;;22.40;20.97;;;;;;;;;;5079357;28;20513;-81
2023/07/25 12:10:57;;;;;;;24.13;21.80;;;;;;;;;;5077721;28;20464;-88
2023/07/25 12:13:24;;;;;;;22.60;21.00;;;;;;;;;;5076010;28;20492;-88
2023/07/25 12:15:54;;;;;;;22.23;20.67;;;;;;;;;;5075491;28;20434;-88
2023/07/25 12:18:28;;;;;;;22.80;21.00;;;;;;;;;;5075542;28;20485;-89
2023/07/25 12:20:55;;;;;;;22.00;20.70;;;;;;;;;;5075618;28;20977;-88
2023/07/25 12:23:28;;;;;;;22.60;21.10;;;;;;;;;;5075674;28;21138;-87
2023/07/25 12:25:56;;;;;;;23.03;21.60;;;;;;;;;;5075824;28;20525;-88
2023/07/25 12:28:23;;;;;;;22.90;21.40;;;;;;;;;;5075202;28;21021;-88
2023/07/25 12:30:50;;;;;;;23.00;21.50;;;;;;;;;;5075398;28;20523;-88
2023/07/25 12:33:19;;;;;;;22.23;20.93;;;;;;;;;;5075245;28;20467;-88
2023/07/25 12:35:46;;;;;;;23.00;21.60;;;;;;;;;;5075183;28;20450;-88
2023/07/25 12:38:13;;;;;;;23.27;21.73;;;;;;;;;;5075290;28;20428;-88
2023/07/25 12:40:40;;;;;;;23.63;21.77;;;;;;;;;;5074612;28;20416;-88
2023/07/25 12:43:07;;;;;;;23.40;21.70;;;;;;;;;;5074982;28;20421;-88
2023/07/25 12:45:34;;;;;;;23.33;21.70;;;;;;;;;;5075011;28;20404;-88
2023/07/25 12:48:02;;;;;;;23.47;21.97;;;;;;;;;;5074270;28;20445;-89
2023/07/25 12:50:31;;;;;;;22.87;21.50;;;;;;;;;;5077916;28;20432;-86
2023/07/25 12:52:58;;;;;;;22.87;21.27;;;;;;;;;;5076346;28;20485;-81
2023/07/25 12:55:25;;;;;;;22.70;21.20;;;;;;;;;;5097547;28;20502;-86
2023/07/25 12:57:52;;;;;;;23.90;22.30;;;;;;;;;;5101479;28;20408;-86
2023/07/25 13:00:20;;;;;;;23.77;21.97;;;;;;;;;;5101953;28;20424;-84
2023/07/25 13:02:47;;;;;;;24.37;22.57;;;;;;;;;;5095760;28;20528;-89
2023/07/25 13:05:14;;;;;;;22.50;20.90;;;;;;;;;;5076037;28;20433;-90
2023/07/25 13:07:42;;;;;;;22.37;20.87;;;;;;;;;;5075943;28;20434;-89
2023/07/25 13:10:10;;;;;;;23.23;21.73;;;;;;;;;;5075636;28;20428;-90
2023/07/25 13:12:37;;;;;;;23.00;21.60;;;;;;;;;;5076088;28;20454;-89
2023/07/25 13:15:05;;;;;;;22.73;21.23;;;;;;;;;;5075603;28;20419;-89
2023/07/25 13:17:32;;;;;;;24.00;22.17;;;;;;;;;;5073472;28;20444;-90
2023/07/25 13:19:59;;;;;;;22.97;21.40;;;;;;;;;;5075388;28;20438;-90
2023/07/25 13:22:26;;;;;;;22.53;21.10;;;;;;;;;;5075649;28;20449;-91
2023/07/25 13:24:56;;;;;;;22.10;20.80;;;;;;;;;;5075533;28;20428;-91
2023/07/25 13:27:25;;;;;;;22.60;21.10;;;;;;;;;;5075359;28;20867;-90
2023/07/25 13:29:52;;;;;;;22.40;20.80;;;;;;;;;;5076420;28;20442;-90
2023/07/25 13:32:19;;;;;;;22.37;20.87;;;;;;;;;;5076122;28;20452;-89
2023/07/25 13:34:47;;;;;;;22.70;21.20;;;;;;;;;;5077426;28;20456;-90
2023/07/25 13:37:14;;;;;;;22.87;21.20;;;;;;;;;;5077804;28;21073;-90
2023/07/25 13:39:41;;;;;;;23.00;21.20;;;;;;;;;;5096701;28;20461;-89
2023/07/25 13:42:09;;;;;;;23.27;21.67;;;;;;;;;;5097355;28;20432;-90
2023/07/25 13:44:36;;;;;;;22.73;20.93;;;;;;;;;;5096732;28;20491;-90
2023/07/25 13:47:04;;;;;;;22.40;20.90;;;;;;;;;;5097688;28;20407;-90
2023/07/25 13:49:31;;;;;;;22.47;20.90;;;;;;;;;;5097027;28;20429;-89
2023/07/25 13:51:58;;;;;;;23.33;21.57;;;;;;;;;;5097268;28;20502;-91
2023/07/25 13:54:25;;;;;;;23.13;21.30;;;;;;;;;;5096515;28;20472;-89
2023/07/25 13:56:53;;;;;;;23.60;22.00;;;;;;;;;;5097333;28;20425;-90
2023/07/25 13:59:21;;;;;;;25.43;23.73;;;;;;;;;;5096988;28;20460;-90
2023/07/25 14:01:49;;;;;;;24.40;22.70;;;;;;;;;;5097128;28;20965;-90
2023/07/25 14:04:16;;;;;;;25.10;23.50;;;;;;;;;;5097428;28;20507;-90
2023/07/25 14:06:44;;;;;;;24.57;23.07;;;;;;;;;;5097443;28;20466;-89
2023/07/25 14:09:11;;;;;;;23.83;22.33;;;;;;;;;;5096801;28;20415;-90
2023/07/25 14:11:38;;;;;;;25.00;23.10;;;;;;;;;;5097644;28;20447;-90
2023/07/25 14:14:05;;;;;;;24.43;22.73;;;;;;;;;;5097044;28;21000;-89
2023/07/25 14:16:34;;;;;;;24.20;22.80;;;;;;;;;;5097974;28;20452;-90
2023/07/25 14:19:01;;;;;;;23.67;22.27;;;;;;;;;;5096962;28;20404;-89